Petersburg James A Johnson Airport Petersburg US
ICAO: PAPG
IATA:
Category: Medium
Scheduled Services:

Elevation: 111 ft
TransAlt. 18000 ft.

Airport Communications:
AWOS 3:125.8
ANCHORAGE CNTR:118
CTAF:122.5
SITKA RDO:122.35

PAPG Zoom In..

Runways:

(A) RW 05 length 6400 ft width 150 ft
---- / hdg 50

(B) RW 23 length 6400 ft width 150 ft
---- / hdg 230

Location; PAPG
Day. 23 / Time. 02.56 Zulu
* Altimeter: 30.25
* Temperature: 21° c. 69.8°f.
* Wind from: 080° Speed 03 kn.
Dewpoint: 12° c.
Visibility: 10 Statute Miles.
Clouds: Clear (automated report).

PAPG 230256Z 08003KT 10SM CLR 21/12 A3025 RMK AO2 SLP246 T02110122 56007


Wind From 080°
Speed 03 kn.

 
 
jpsmedia.com for Web Design worldairports.se 2018   terms of use